createdAt,value
2022-08-17T00:00:42.736Z,100551.25
2022-08-17T00:03:24.592Z,100549.06
2022-08-17T00:06:00.159Z,100547.34
2022-08-17T00:08:34.784Z,100555.91
2022-08-17T00:11:06.272Z,100549.03
2022-08-17T00:13:38.251Z,100543.78
2022-08-17T00:16:17.047Z,100543.84
2022-08-17T00:18:58.160Z,100537.00
2022-08-17T00:21:59.932Z,100531.06
2022-08-17T00:24:22.959Z,100534.75
2022-08-17T00:26:50.441Z,100547.78
2022-08-17T00:29:20.033Z,100538.94
2022-08-17T00:31:48.689Z,100533.13
2022-08-17T00:34:16.382Z,100537.38
2022-08-17T00:36:43.922Z,100527.28
2022-08-17T00:39:11.672Z,100524.00
2022-08-17T00:41:42.096Z,100519.09
2022-08-17T00:44:12.215Z,100524.19
2022-08-17T00:46:42.778Z,100530.66
2022-08-17T00:49:12.660Z,100521.25
2022-08-17T00:51:49.019Z,100514.75
2022-08-17T00:54:24.194Z,100516.06
2022-08-17T00:56:58.819Z,100514.75
2022-08-17T00:59:31.081Z,100510.28
2022-08-17T01:01:59.687Z,100496.91
2022-08-17T01:04:30.196Z,100504.41
2022-08-17T01:06:59.028Z,100506.50
2022-08-17T01:09:26.993Z,100507.22
2022-08-17T01:11:54.853Z,100507.69
2022-08-17T01:14:25.177Z,100505.72
2022-08-17T01:16:55.763Z,100516.00
2022-08-17T01:19:30.117Z,100520.16
2022-08-17T01:22:09.459Z,100520.06
2022-08-17T01:24:43.365Z,100514.97
2022-08-17T01:27:13.730Z,100510.81
2022-08-17T01:29:46.538Z,100516.22
2022-08-17T01:32:14.847Z,100522.50
2022-08-17T01:34:43.894Z,100517.78
2022-08-17T01:37:20.121Z,100520.41
2022-08-17T01:39:57.622Z,100518.31
2022-08-17T01:42:43.239Z,100516.91
2022-08-17T01:45:43.054Z,100517.00
2022-08-17T01:48:11.485Z,100511.66
2022-08-17T01:50:42.342Z,100510.56
2022-08-17T01:53:18.299Z,100510.75
2022-08-17T01:55:48.660Z,100516.81
2022-08-17T01:58:17.150Z,100517.84
2022-08-17T02:01:00.466Z,100522.75
2022-08-17T02:03:30.056Z,100532.66
2022-08-17T02:05:58.150Z,100536.78
2022-08-17T02:08:38.969Z,100544.19
2022-08-17T02:11:16.999Z,100546.75
2022-08-17T02:13:47.253Z,100550.88
2022-08-17T02:16:22.611Z,100554.63
2022-08-17T02:18:50.286Z,100556.41
2022-08-17T02:21:17.778Z,100552.59
2022-08-17T02:23:48.882Z,100553.38
2022-08-17T02:26:25.441Z,100552.00
2022-08-17T02:28:54.863Z,100563.06
2022-08-17T02:31:22.314Z,100571.06
2022-08-17T02:34:00.269Z,100565.06
2022-08-17T02:36:35.764Z,100559.94
2022-08-17T02:39:06.289Z,100556.44
2022-08-17T02:41:34.128Z,100555.88
2022-08-17T02:44:01.898Z,100556.91
2022-08-17T02:46:31.093Z,100554.47
2022-08-17T02:49:00.177Z,100556.56
2022-08-17T02:51:28.146Z,100558.34
2022-08-17T02:54:39.161Z,100565.59
2022-08-17T02:56:43.397Z,100574.91
2022-08-17T02:59:10.873Z,100566.16
2022-08-17T03:01:38.636Z,100568.09
2022-08-17T03:04:06.381Z,100569.25
2022-08-17T03:06:34.113Z,100570.66
2022-08-17T03:09:01.590Z,100579.44
2022-08-17T03:11:29.023Z,100573.78
2022-08-17T03:13:56.924Z,100565.50
2022-08-17T03:16:24.357Z,100562.50
2022-08-17T03:18:51.957Z,100564.66
2022-08-17T03:21:19.418Z,100562.19
2022-08-17T03:23:46.892Z,100563.19
2022-08-17T03:26:22.056Z,100564.47
2022-08-17T03:28:49.644Z,100558.88
2022-08-17T03:31:18.457Z,100567.16
2022-08-17T03:33:46.054Z,100561.97
2022-08-17T03:36:13.744Z,100552.13
2022-08-17T03:38:41.648Z,100560.31
2022-08-17T03:41:09.390Z,100547.09
2022-08-17T03:43:36.805Z,100553.16
2022-08-17T03:46:28.386Z,100541.50
2022-08-17T03:49:23.699Z,100536.75
2022-08-17T03:52:10.172Z,100543.88
2022-08-17T03:54:56.674Z,100536.56
2022-08-17T03:57:24.762Z,100536.13
2022-08-17T03:59:53.348Z,100526.91
2022-08-17T04:02:33.947Z,100532.34
2022-08-17T04:05:01.817Z,100523.75
2022-08-17T04:07:31.550Z,100528.56
2022-08-17T04:09:59.593Z,100540.25
2022-08-17T04:12:31.716Z,100551.72
2022-08-17T04:14:59.879Z,100552.84
2022-08-17T04:17:29.273Z,100545.88
2022-08-17T04:19:57.193Z,100544.94
2022-08-17T04:22:32.069Z,100545.22
2022-08-17T04:25:10.129Z,100550.81
2022-08-17T04:27:37.652Z,100551.56
2022-08-17T04:30:07.407Z,100544.75
2022-08-17T04:33:09.883Z,100548.41
2022-08-17T04:35:47.813Z,100544.66
2022-08-17T04:38:19.034Z,100542.94
2022-08-17T04:41:06.194Z,100539.28
2022-08-17T04:43:35.112Z,100549.94
2022-08-17T04:46:05.481Z,100551.53
2022-08-17T04:48:47.840Z,100556.00
2022-08-17T04:51:24.823Z,100555.44
2022-08-17T04:53:55.804Z,100562.25
2022-08-17T04:56:25.887Z,100570.22
2022-08-17T04:58:56.529Z,100557.25
2022-08-17T05:01:26.113Z,100563.59
2022-08-17T05:03:56.274Z,100558.06
2022-08-17T05:06:24.048Z,100559.25
2022-08-17T05:08:51.967Z,100569.66
2022-08-17T05:11:19.721Z,100580.16
2022-08-17T05:13:50.227Z,100589.44
2022-08-17T05:16:20.549Z,100605.94
2022-08-17T05:18:48.280Z,100606.44
2022-08-17T05:21:16.507Z,100608.47
2022-08-17T05:23:44.973Z,100615.03
2022-08-17T05:26:26.283Z,100609.72
2022-08-17T05:29:00.514Z,100611.69
2022-08-17T05:31:31.189Z,100620.97
2022-08-17T05:33:59.527Z,100630.34
2022-08-17T05:36:38.096Z,100634.84
2022-08-17T05:39:16.232Z,100647.94
2022-08-17T05:41:47.685Z,100642.03
2022-08-17T05:44:16.292Z,100639.03
2022-08-17T05:46:48.776Z,100629.75
2022-08-17T05:49:19.240Z,100633.00
2022-08-17T05:51:58.530Z,100642.94
2022-08-17T05:54:47.843Z,100652.09
2022-08-17T05:57:26.977Z,100651.16
2022-08-17T05:59:54.618Z,100656.16
2022-08-17T06:02:51.963Z,100658.25
2022-08-17T06:05:30.861Z,100663.41
2022-08-17T06:08:25.693Z,100665.44
2022-08-17T06:11:06.710Z,100669.34
2022-08-17T06:13:46.439Z,100673.22
2022-08-17T06:16:28.256Z,100679.06
2022-08-17T06:19:24.207Z,100677.59
2022-08-17T06:21:54.896Z,100672.34
2022-08-17T06:24:28.617Z,100676.47
2022-08-17T06:27:07.555Z,100687.09
2022-08-17T06:29:44.794Z,100682.00
2022-08-17T06:32:14.746Z,100690.50
2022-08-17T06:34:45.206Z,100690.53
2022-08-17T06:37:34.291Z,100684.91
2022-08-17T06:40:04.872Z,100690.06
2022-08-17T06:43:06.565Z,100693.22
2022-08-17T06:45:31.658Z,100704.47
2022-08-17T06:48:05.802Z,100697.09
2022-08-17T06:50:47.747Z,100696.66
2022-08-17T06:53:31.802Z,100699.28
2022-08-17T06:56:08.750Z,100711.50
2022-08-17T06:58:40.295Z,100689.28
2022-08-17T07:01:15.429Z,100677.47
2022-08-17T07:03:49.894Z,100693.94
2022-08-17T07:06:22.977Z,100688.53
2022-08-17T07:08:55.596Z,100685.78
2022-08-17T07:11:36.306Z,100688.19
2022-08-17T07:14:18.933Z,100680.84
2022-08-17T07:16:50.835Z,100670.78
2022-08-17T07:19:22.672Z,100667.81
2022-08-17T07:22:03.854Z,100661.78
2022-08-17T07:24:37.319Z,100667.59
2022-08-17T07:27:17.352Z,100667.09
2022-08-17T07:29:58.912Z,100666.09
2022-08-17T07:32:36.008Z,100664.19
2022-08-17T07:35:23.124Z,100665.94
2022-08-17T07:38:25.349Z,100667.22
2022-08-17T07:40:57.713Z,100663.31
2022-08-17T07:43:32.112Z,100648.84
2022-08-17T07:46:21.316Z,100643.94
2022-08-17T07:48:52.889Z,100645.97
2022-08-17T07:51:34.043Z,100634.16
2022-08-17T07:54:22.644Z,100646.00
2022-08-17T07:57:13.103Z,100647.50
2022-08-17T08:00:01.246Z,100645.47
2022-08-17T08:02:38.701Z,100640.66
2022-08-17T08:05:49.493Z,100641.63
2022-08-17T08:08:24.692Z,100640.09
2022-08-17T08:11:07.327Z,100641.81
2022-08-17T08:13:42.406Z,100651.63
2022-08-17T08:16:13.364Z,100640.13
2022-08-17T08:18:54.089Z,100654.53
2022-08-17T08:21:44.809Z,100655.09
2022-08-17T08:24:15.076Z,100650.66
2022-08-17T08:27:01.070Z,100641.78
2022-08-17T08:30:07.262Z,100638.94
2022-08-17T08:32:50.293Z,100628.06
2022-08-17T08:35:38.163Z,100644.91
2022-08-17T08:38:45.265Z,100644.09
2022-08-17T08:41:21.212Z,100644.09
2022-08-17T08:43:58.215Z,100638.66
2022-08-17T08:46:31.975Z,100644.09
2022-08-17T08:49:33.847Z,100642.66
2022-08-17T08:52:34.189Z,100645.25
2022-08-17T08:55:20.202Z,100647.38
2022-08-17T08:58:02.804Z,100640.03
2022-08-17T09:00:35.902Z,100628.28
2022-08-17T09:03:36.514Z,100640.53
2022-08-17T09:06:38.532Z,100643.47
2022-08-17T09:09:50.757Z,100644.94
2022-08-17T09:12:34.649Z,100648.00
2022-08-17T09:15:27.788Z,100641.31
2022-08-17T09:18:59.185Z,100643.56
2022-08-17T09:21:02.298Z,100651.06
2022-08-17T09:24:04.861Z,100639.28
2022-08-17T09:26:39.477Z,100638.28
2022-08-17T09:29:12.958Z,100644.97
2022-08-17T09:32:03.756Z,100638.56
2022-08-17T09:34:47.000Z,100633.63
2022-08-17T09:37:37.465Z,100643.78
2022-08-17T09:40:18.375Z,100645.63
2022-08-17T09:43:04.298Z,100645.16
2022-08-17T09:45:41.138Z,100643.25
2022-08-17T09:48:20.840Z,100638.94
2022-08-17T09:51:04.826Z,100637.47
2022-08-17T09:53:37.167Z,100636.63
2022-08-17T09:56:24.167Z,100632.44
2022-08-17T09:59:08.694Z,100633.72
2022-08-17T10:01:47.524Z,100630.00
2022-08-17T10:04:30.605Z,100639.53
2022-08-17T10:07:13.953Z,100630.13
2022-08-17T10:10:21.145Z,100637.25
2022-08-17T10:13:34.106Z,100629.63
2022-08-17T10:16:41.200Z,100619.31
2022-08-17T10:19:47.130Z,100627.19
2022-08-17T10:22:53.258Z,100631.53
2022-08-17T10:25:54.657Z,100643.31
2022-08-17T10:28:30.211Z,100643.44
2022-08-17T10:31:33.182Z,100644.69
2022-08-17T10:33:53.481Z,100652.22
2022-08-17T10:36:37.912Z,100653.22
2022-08-17T10:39:20.210Z,100650.00
2022-08-17T10:41:52.695Z,100641.00
2022-08-17T10:44:40.358Z,100654.84
2022-08-17T10:47:15.181Z,100651.59
2022-08-17T10:49:53.907Z,100652.09
2022-08-17T10:52:27.884Z,100651.13
2022-08-17T10:54:57.897Z,100648.94
2022-08-17T10:57:44.966Z,100648.91
2022-08-17T11:00:18.770Z,100649.66
2022-08-17T11:02:54.986Z,100651.03
2022-08-17T11:05:47.369Z,100648.81
2022-08-17T11:08:36.859Z,100647.94
2022-08-17T11:11:35.987Z,100642.16
2022-08-17T11:14:17.170Z,100643.47
2022-08-17T11:17:07.857Z,100636.38
2022-08-17T11:19:54.423Z,100628.56
2022-08-17T11:22:56.721Z,100633.97
2022-08-17T11:25:45.143Z,100624.41
2022-08-17T11:28:52.482Z,100619.63
2022-08-17T11:31:40.202Z,100618.03
2022-08-17T11:34:21.691Z,100609.75
2022-08-17T11:37:00.427Z,100608.25
2022-08-17T11:39:37.719Z,100609.34
2022-08-17T11:42:37.519Z,100602.34
2022-08-17T11:45:19.512Z,100594.06
2022-08-17T11:48:50.979Z,100600.47
2022-08-17T11:51:42.147Z,100591.66
2022-08-17T11:54:33.608Z,100591.59
2022-08-17T11:57:27.667Z,100596.63
2022-08-17T11:59:58.535Z,100588.56
2022-08-17T12:02:31.609Z,100588.13
2022-08-17T12:05:12.468Z,100590.88
2022-08-17T12:08:06.009Z,100586.84
2022-08-17T12:10:39.466Z,100583.84
2022-08-17T12:13:13.273Z,100577.75
2022-08-17T12:15:49.745Z,100593.84
2022-08-17T12:18:37.639Z,100600.81
2022-08-17T12:21:37.411Z,100606.97
2022-08-17T12:24:29.292Z,100610.75
2022-08-17T12:27:01.013Z,100598.63
2022-08-17T12:29:35.712Z,100606.47
2022-08-17T12:32:13.367Z,100617.63
2022-08-17T12:34:43.690Z,100608.34
2022-08-17T12:37:16.548Z,100613.72
2022-08-17T12:40:03.448Z,100617.56
2022-08-17T12:42:39.396Z,100617.81
2022-08-17T12:45:21.595Z,100610.25
2022-08-17T12:47:49.529Z,100612.41
2022-08-17T12:50:28.955Z,100606.91
2022-08-17T12:53:01.954Z,100595.25
2022-08-17T12:55:36.982Z,100588.25
2022-08-17T12:58:05.165Z,100586.91
2022-08-17T13:00:35.826Z,100592.31
2022-08-17T13:03:07.799Z,100595.16
2022-08-17T13:05:53.781Z,100593.47
2022-08-17T13:08:45.216Z,100597.72
2022-08-17T13:11:19.236Z,100598.88
2022-08-17T13:13:51.461Z,100598.47
2022-08-17T13:16:22.722Z,100601.56
2022-08-17T13:18:50.226Z,100603.97
2022-08-17T13:21:22.393Z,100591.69
2022-08-17T13:24:11.113Z,100601.72
2022-08-17T13:26:54.751Z,100606.28
2022-08-17T13:29:30.790Z,100604.47
2022-08-17T13:32:04.740Z,100594.66
2022-08-17T13:35:12.245Z,100601.41
2022-08-17T13:37:36.554Z,100603.19
2022-08-17T13:40:10.033Z,100606.66
2022-08-17T13:42:51.681Z,100610.25
2022-08-17T13:45:39.612Z,100612.84
2022-08-17T13:48:30.421Z,100601.91
2022-08-17T13:50:58.035Z,100604.25
2022-08-17T13:53:26.010Z,100602.03
2022-08-17T13:55:56.803Z,100599.03
2022-08-17T13:58:32.250Z,100585.81
2022-08-17T14:01:31.734Z,100583.56
2022-08-17T14:04:02.088Z,100580.94
2022-08-17T14:06:53.396Z,100583.47
2022-08-17T14:09:26.589Z,100570.38
2022-08-17T14:11:56.809Z,100557.75
2022-08-17T14:14:24.992Z,100553.09
2022-08-17T14:16:53.606Z,100557.22
2022-08-17T14:19:24.307Z,100543.06
2022-08-17T14:21:59.058Z,100537.97
2022-08-17T14:24:32.845Z,100528.50
2022-08-17T14:27:03.518Z,100526.31
2022-08-17T14:29:34.249Z,100523.53
2022-08-17T14:32:10.017Z,100520.09
2022-08-17T14:34:37.486Z,100526.56
2022-08-17T14:37:05.176Z,100520.56
2022-08-17T14:39:32.918Z,100518.72
2022-08-17T14:42:01.407Z,100519.78
2022-08-17T14:44:29.951Z,100522.16
2022-08-17T14:46:57.356Z,100533.19
2022-08-17T14:49:26.065Z,100523.78
2022-08-17T14:51:53.997Z,100517.13
2022-08-17T14:54:28.866Z,100496.91
2022-08-17T14:57:23.070Z,100482.13
2022-08-17T14:59:55.204Z,100476.91
2022-08-17T15:02:30.411Z,100482.59
2022-08-17T15:05:04.010Z,100471.59
2022-08-17T15:07:31.846Z,100478.75
2022-08-17T15:10:01.635Z,100477.03
2022-08-17T15:12:33.386Z,100473.19
2022-08-17T15:15:05.037Z,100480.13
2022-08-17T15:17:44.282Z,100473.47
2022-08-17T15:20:20.770Z,100468.69
2022-08-17T15:22:55.653Z,100470.81
2022-08-17T15:25:25.938Z,100461.03
2022-08-17T15:27:55.891Z,100455.41
2022-08-17T15:30:26.003Z,100446.41
2022-08-17T15:32:55.175Z,100445.25
2022-08-17T15:35:29.838Z,100452.22
2022-08-17T15:38:10.536Z,100441.97
2022-08-17T15:40:44.918Z,100443.28
2022-08-17T15:43:28.305Z,100452.56
2022-08-17T15:46:06.443Z,100455.41
2022-08-17T15:48:41.833Z,100452.53
2022-08-17T15:51:31.129Z,100454.56
2022-08-17T15:54:04.467Z,100454.22
2022-08-17T15:56:47.017Z,100460.75
2022-08-17T15:59:14.552Z,100461.59
2022-08-17T16:03:15.059Z,100458.69
2022-08-17T16:04:31.600Z,100472.91
2022-08-17T16:07:00.085Z,100479.19
2022-08-17T16:09:28.296Z,100478.16
2022-08-17T16:11:56.466Z,100492.72
2022-08-17T16:14:32.554Z,100499.44
2022-08-17T16:17:04.585Z,100504.72
2022-08-17T16:19:34.350Z,100500.84
2022-08-17T16:22:02.610Z,100492.88
2022-08-17T16:24:31.872Z,100489.19
2022-08-17T16:26:59.765Z,100490.59
2022-08-17T16:29:27.907Z,100480.47
2022-08-17T16:31:56.497Z,100467.78
2022-08-17T16:34:24.685Z,100465.09
2022-08-17T16:36:56.193Z,100446.34
2022-08-17T16:39:26.736Z,100436.38
2022-08-17T16:41:56.019Z,100424.06
2022-08-17T16:44:25.862Z,100422.31
2022-08-17T16:46:53.716Z,100417.09
2022-08-17T16:49:25.781Z,100409.03
2022-08-17T16:52:09.700Z,100413.19
2022-08-17T16:54:40.673Z,100409.63
2022-08-17T16:57:08.220Z,100408.63
2022-08-17T16:59:41.853Z,100405.19
2022-08-17T17:02:14.530Z,100409.59
2022-08-17T17:04:57.582Z,100406.63
2022-08-17T17:07:55.698Z,100417.50
2022-08-17T17:10:33.554Z,100426.84
2022-08-17T17:13:04.361Z,100456.28
2022-08-17T17:15:47.347Z,100453.50
2022-08-17T17:18:16.605Z,100466.41
2022-08-17T17:20:55.965Z,100476.56
2022-08-17T17:23:35.811Z,100470.53
2022-08-17T17:26:16.508Z,100446.06
2022-08-17T17:29:01.365Z,100452.84
2022-08-17T17:31:38.461Z,100449.47
2022-08-17T17:34:10.846Z,100458.13
2022-08-17T17:36:40.801Z,100466.31
2022-08-17T17:39:23.136Z,100472.69
2022-08-17T17:42:02.745Z,100480.69
2022-08-17T17:44:38.238Z,100484.75
2022-08-17T17:47:06.136Z,100493.41
2022-08-17T17:49:37.155Z,100499.88
2022-08-17T17:52:30.136Z,100516.31
2022-08-17T17:54:57.973Z,100528.25
2022-08-17T17:57:40.633Z,100550.63
2022-08-17T18:00:16.564Z,100575.41
2022-08-17T18:02:53.892Z,100599.25
2022-08-17T18:05:44.334Z,100591.25
2022-08-17T18:08:34.884Z,100577.44
2022-08-17T18:11:25.004Z,100588.41
2022-08-17T18:14:04.804Z,100587.34
2022-08-17T18:16:33.024Z,100624.19
2022-08-17T18:19:00.884Z,100614.66
2022-08-17T18:21:44.547Z,100588.50
2022-08-17T18:24:16.289Z,100568.09
2022-08-17T18:26:56.663Z,100566.38
2022-08-17T18:29:31.545Z,100586.59
2022-08-17T18:32:17.707Z,100591.44
2022-08-17T18:34:48.984Z,100586.28
2022-08-17T18:37:42.792Z,100589.91
2022-08-17T18:40:17.405Z,100594.31
2022-08-17T18:42:46.547Z,100612.25
2022-08-17T18:45:35.585Z,100603.59
2022-08-17T18:48:03.564Z,100616.53
2022-08-17T18:50:41.468Z,100631.84
2022-08-17T18:53:39.942Z,100628.38
2022-08-17T18:56:33.063Z,100615.53
2022-08-17T18:59:18.712Z,100643.69
2022-08-17T19:02:27.250Z,100668.06
2022-08-17T19:05:09.053Z,100625.88
2022-08-17T19:07:46.255Z,100621.84
2022-08-17T19:10:23.528Z,100658.41
2022-08-17T19:13:12.307Z,100657.81
2022-08-17T19:16:14.423Z,100648.66
2022-08-17T19:18:48.892Z,100638.56
2022-08-17T19:21:40.490Z,100645.56
2022-08-17T19:24:19.752Z,100662.47
2022-08-17T19:27:01.212Z,100668.00
2022-08-17T19:29:43.281Z,100661.81
2022-08-17T19:32:12.742Z,100649.00
2022-08-17T19:34:43.176Z,100640.47
2022-08-17T19:37:35.355Z,100635.78
2022-08-17T19:40:51.699Z,100623.94
2022-08-17T19:43:29.119Z,100636.41
2022-08-17T19:46:07.561Z,100633.72
2022-08-17T19:48:38.294Z,100630.66
2022-08-17T19:51:21.649Z,100626.09
2022-08-17T19:54:04.823Z,100617.38
2022-08-17T19:56:44.022Z,100604.38
2022-08-17T19:59:58.783Z,100618.41
2022-08-17T20:02:44.394Z,100627.44
2022-08-17T20:05:21.589Z,100614.41
2022-08-17T20:07:55.600Z,100613.97
2022-08-17T20:10:47.265Z,100616.69
2022-08-17T20:13:35.245Z,100617.53
2022-08-17T20:16:04.251Z,100621.03
2022-08-17T20:18:34.583Z,100629.47
2022-08-17T20:21:21.243Z,100622.22
2022-08-17T20:24:18.380Z,100616.78
2022-08-17T20:27:11.243Z,100624.41
2022-08-17T20:30:03.454Z,100609.47
2022-08-17T20:32:53.127Z,100609.00
2022-08-17T20:35:23.685Z,100619.41
2022-08-17T20:37:55.496Z,100632.22
2022-08-17T20:40:30.396Z,100636.34
2022-08-17T20:42:59.788Z,100639.72
2022-08-17T20:45:58.791Z,100641.25
2022-08-17T20:48:38.682Z,100655.84
2022-08-17T20:51:27.539Z,100670.66
2022-08-17T20:53:55.032Z,100663.53
2022-08-17T20:56:44.380Z,100651.59
2022-08-17T20:59:21.315Z,100650.88
2022-08-17T21:02:18.128Z,100649.44
2022-08-17T21:05:00.980Z,100656.91
2022-08-17T21:07:43.533Z,100650.81
2022-08-17T21:10:15.917Z,100649.13
2022-08-17T21:12:53.994Z,100641.56
2022-08-17T21:15:31.095Z,100627.19
2022-08-17T21:18:11.987Z,100620.19
2022-08-17T21:20:49.761Z,100635.63
2022-08-17T21:23:40.394Z,100629.38
2022-08-17T21:26:31.192Z,100623.88
2022-08-17T21:29:31.827Z,100610.72
2022-08-17T21:32:03.370Z,100613.22
2022-08-17T21:34:33.745Z,100628.44
2022-08-17T21:37:20.044Z,100632.50
2022-08-17T21:39:56.773Z,100634.31
2022-08-17T21:42:37.439Z,100655.38
2022-08-17T21:45:21.607Z,100645.50
2022-08-17T21:48:08.719Z,100639.00
2022-08-17T21:50:36.825Z,100635.13
2022-08-17T21:53:05.651Z,100627.97
2022-08-17T21:55:36.082Z,100632.78
2022-08-17T21:58:19.248Z,100624.38
2022-08-17T22:00:46.984Z,100614.19
2022-08-17T22:03:26.244Z,100628.06
2022-08-17T22:05:53.938Z,100639.13
2022-08-17T22:08:24.819Z,100634.41
2022-08-17T22:11:01.360Z,100629.31
2022-08-17T22:13:29.670Z,100638.03
2022-08-17T22:16:27.770Z,100629.19
2022-08-17T22:18:54.415Z,100629.81
2022-08-17T22:21:22.579Z,100638.34
2022-08-17T22:24:05.204Z,100635.47
2022-08-17T22:27:03.520Z,100629.09
2022-08-17T22:29:54.311Z,100627.09
2022-08-17T22:32:33.649Z,100625.84
2022-08-17T22:35:19.248Z,100615.78
2022-08-17T22:37:46.787Z,100619.59
2022-08-17T22:40:26.405Z,100624.81
2022-08-17T22:42:54.142Z,100616.69
2022-08-17T22:45:24.286Z,100620.50
2022-08-17T22:47:56.926Z,100614.00
2022-08-17T22:50:28.094Z,100610.78
2022-08-17T22:53:31.150Z,100602.78
2022-08-17T22:56:17.602Z,100602.13
2022-08-17T22:59:13.327Z,100604.16
2022-08-17T23:01:42.201Z,100599.94
2022-08-17T23:04:15.998Z,100594.44
2022-08-17T23:06:43.688Z,100578.69
2022-08-17T23:09:11.541Z,100583.63
2022-08-17T23:11:49.692Z,100587.66
2022-08-17T23:14:20.464Z,100585.09
2022-08-17T23:16:50.231Z,100581.13
2022-08-17T23:19:20.719Z,100583.81
2022-08-17T23:21:51.063Z,100586.38
2022-08-17T23:24:25.153Z,100581.09
2022-08-17T23:26:53.797Z,100573.47
2022-08-17T23:29:21.599Z,100566.81
2022-08-17T23:31:51.066Z,100564.16
2022-08-17T23:34:19.025Z,100557.34
2022-08-17T23:36:50.727Z,100561.38
2022-08-17T23:39:24.567Z,100556.31
2022-08-17T23:41:57.333Z,100557.34
2022-08-17T23:44:25.341Z,100549.84
2022-08-17T23:46:53.473Z,100549.63
2022-08-17T23:49:21.204Z,100542.25
2022-08-17T23:51:49.032Z,100536.75
2022-08-17T23:54:24.351Z,100527.50
2022-08-17T23:56:52.185Z,100530.28
2022-08-17T23:59:21.601Z,100521.13
